Time;durP1;ratioP1;P1;durP2;ratioP2;P2;SDS_P1;SDS_P2;PMS_P1;PMS_P2;Temp;Humidity;BMP_temperature;BMP_pressure;BME280_temperature;BME280_humidity;BME280_pressure;Samples;Min_cycle;Max_cycle;Signal;HPM_P1;HPM_P2
2021/03/10 00:00:32;;;;;;;7.82;4.60;;;;;;;6.78;29.50;101585.88;4972990;28;97806;-80
2021/03/10 00:02:58;;;;;;;9.55;4.10;;;;;;;6.88;29.69;101585.81;4962951;28;98905;-80
2021/03/10 00:05:24;;;;;;;10.30;4.50;;;;;;;6.82;29.31;101584.13;4973277;28;97243;-81
2021/03/10 00:07:50;;;;;;;;;;;;;;;6.74;29.71;101586.78;4976641;28;96794;-80
2021/03/10 00:10:19;;;;;;;10.95;4.75;;;;;;;6.58;29.85;101582.50;4975538;28;99281;-80
2021/03/10 00:12:45;;;;;;;9.57;4.07;;;;;;;6.72;29.67;101582.41;4974184;28;98893;-80
2021/03/10 00:15:12;;;;;;;;;;;;;;;6.83;29.71;101582.38;4975623;28;96824;-81
2021/03/10 00:17:41;;;;;;;12.88;4.97;;;;;;;6.99;29.61;101589.25;4964040;28;97292;-81
2021/03/10 00:20:09;;;;;;;10.60;4.75;;;;;;;7.06;29.42;101593.56;4975725;28;99103;-81
2021/03/10 00:22:35;;;;;;;9.07;4.63;;;;;;;7.20;29.13;101589.06;4973117;28;99242;-82
2021/03/10 00:25:01;;;;;;;9.90;4.40;;;;;;;6.89;29.62;101591.06;4976927;28;97674;-82
2021/03/10 00:27:28;;;;;;;7.13;4.22;;;;;;;6.92;29.30;101588.41;4978068;28;96749;-82
2021/03/10 00:29:56;;;;;;;9.10;4.57;;;;;;;6.98;29.98;101596.25;4975051;28;97544;-82
2021/03/10 00:32:23;;;;;;;10.75;4.88;;;;;;;6.92;30.10;101593.66;4976414;28;98248;-82
2021/03/10 00:34:49;;;;;;;8.95;4.80;;;;;;;7.07;29.45;101595.31;4976722;28;97199;-80
2021/03/10 00:37:16;;;;;;;15.73;5.07;;;;;;;6.91;29.63;101599.78;4977345;28;96800;-81
2021/03/10 00:39:44;;;;;;;11.00;4.43;;;;;;;6.93;29.91;101594.53;4978860;28;98948;-81
2021/03/10 00:42:10;;;;;;;8.30;4.55;;;;;;;6.84;29.73;101599.84;4972711;28;98125;-81
2021/03/10 00:44:37;;;;;;;11.32;5.28;;;;;;;6.69;30.06;101595.59;4977784;28;97850;-82
2021/03/10 00:47:04;;;;;;;9.15;4.13;;;;;;;6.62;30.52;101592.13;4974392;28;96960;-82
2021/03/10 00:49:30;;;;;;;12.77;4.85;;;;;;;6.60;30.60;101585.13;4974783;28;98875;-81
2021/03/10 00:51:58;;;;;;;11.38;5.22;;;;;;;6.54;30.63;101591.28;4969045;28;99180;-80
2021/03/10 00:54:24;;;;;;;10.63;4.80;;;;;;;6.42;30.91;101590.47;4974435;28;97837;-81
2021/03/10 00:56:50;;;;;;;12.80;5.07;;;;;;;6.15;31.48;101596.72;4974583;28;96852;-80
2021/03/10 00:59:16;;;;;;;11.25;5.07;;;;;;;5.92;32.29;101589.78;4977846;28;98919;-81
2021/03/10 01:01:43;;;;;;;;;;;;;;;5.94;33.18;101585.44;4971353;28;98916;-80
2021/03/10 01:04:09;;;;;;;8.77;4.93;;;;;;;6.02;33.25;101574.03;4966295;28;97073;-81
2021/03/10 01:06:35;;;;;;;;;;;;;;;5.98;33.13;101579.28;4977147;28;96965;-81
2021/03/10 01:09:02;;;;;;;10.85;5.25;;;;;;;5.87;33.63;101578.44;4977374;28;99300;-81
2021/03/10 01:11:28;;;;;;;13.25;5.45;;;;;;;6.15;33.91;101568.72;4977234;28;98239;-80
2021/03/10 01:13:54;;;;;;;14.23;5.50;;;;;;;5.58;34.51;101582.84;4981454;28;96955;-81
2021/03/10 01:16:20;;;;;;;12.68;4.78;;;;;;;5.72;34.09;101581.06;4978107;28;96275;-81
2021/03/10 01:18:46;;;;;;;;;;;;;;;5.24;35.67;101575.91;4992213;28;98141;-81
2021/03/10 01:21:13;;;;;;;9.63;4.88;;;;;;;5.40;34.84;101578.50;4990591;28;97737;-80
2021/03/10 01:23:39;;;;;;;15.93;4.80;;;;;;;5.32;35.75;101582.88;4979781;28;96793;-81
2021/03/10 01:26:04;;;;;;;;;;;;;;;5.52;35.42;101577.63;4980270;28;96759;-78
2021/03/10 01:28:30;;;;;;;8.65;4.88;;;;;;;5.37;36.43;101580.28;4964122;28;96891;-79
2021/03/10 01:30:56;;;;;;;;;;;;;;;5.10;37.58;101582.03;4967381;28;96882;-79
2021/03/10 01:33:22;;;;;;;15.02;5.30;;;;;;;5.21;37.49;101576.78;4967633;28;97263;-81
2021/03/10 01:35:49;;;;;;;12.13;5.00;;;;;;;5.17;36.16;101581.16;4967163;28;97559;-80
2021/03/10 01:38:15;;;;;;;9.27;4.35;;;;;;;5.19;36.90;101575.91;4977425;28;99012;-80
2021/03/10 01:40:41;;;;;;;;;;;;;;;5.34;36.01;101581.16;4971824;28;98789;-80
2021/03/10 01:43:08;;;;;;;12.02;5.28;;;;;;;5.17;36.38;101577.66;4970397;28;97102;-80
2021/03/10 01:45:35;;;;;;;14.05;5.13;;;;;;;5.42;35.23;101583.75;4971115;28;97187;-80
2021/03/10 01:48:05;;;;;;;10.65;4.80;;;;;;;5.02;35.33;101575.91;4966964;28;99326;-80
2021/03/10 01:50:32;;;;;;;11.63;5.53;;;;;;;5.22;35.97;101581.16;4967955;28;98922;-80
2021/03/10 01:52:59;;;;;;;11.63;5.18;;;;;;;5.26;36.20;101571.53;4972466;28;96960;-80
2021/03/10 01:55:25;;;;;;;14.52;5.35;;;;;;;5.52;35.55;101577.63;4979702;28;96860;-79
2021/03/10 01:57:51;;;;;;;13.23;5.10;;;;;;;5.79;33.74;101579.31;4977342;28;99778;-80
2021/03/10 02:00:18;;;;;;;;;;;;;;;6.07;33.23;101573.13;4970808;28;99695;-80
2021/03/10 02:02:45;;;;;;;13.65;4.88;;;;;;;5.97;33.22;101577.53;4971945;28;96797;-81
2021/03/10 02:05:16;;;;;;;15.70;5.70;;;;;;;5.58;34.12;101582.84;4962010;28;96919;-80
2021/03/10 02:07:52;;;;;;;18.20;5.90;;;;;;;5.46;34.69;101575.00;4972422;28;101909;-81
2021/03/10 02:10:29;;;;;;;16.52;6.03;;;;;;;5.66;34.80;101574.97;4970866;28;98152;-80
2021/03/10 02:13:04;;;;;;;14.13;4.97;;;;;;;5.54;35.33;101578.50;4976678;28;98695;-80
2021/03/10 02:15:40;;;;;;;13.88;5.15;;;;;;;5.59;35.44;101576.72;4978726;28;96757;-81
2021/03/10 02:18:10;;;;;;;14.95;5.90;;;;;;;5.51;35.54;101570.66;4969147;28;100252;-81
2021/03/10 02:20:38;;;;;;;12.98;5.40;;;;;;;5.50;35.84;101574.16;4975669;28;99092;-81
2021/03/10 02:23:27;;;;;;;14.10;5.43;;;;;;;5.70;35.89;101576.72;4979027;28;96747;-81
2021/03/10 02:26:16;;;;;;;14.52;5.72;;;;;;;5.49;35.25;101572.41;4973859;28;97004;-80
2021/03/10 02:28:44;;;;;;;11.35;5.57;;;;;;;5.18;36.83;101569.81;4976631;28;101491;-81
2021/03/10 02:31:11;;;;;;;15.07;5.82;;;;;;;5.04;37.37;101576.81;4976138;28;97844;-80
2021/03/10 02:33:39;;;;;;;14.32;5.82;;;;;;;5.35;37.33;101572.41;4979000;28;97618;-81
2021/03/10 02:36:08;;;;;;;12.25;5.60;;;;;;;5.43;36.26;101580.28;4978344;28;96790;-80
2021/03/10 02:38:38;;;;;;;15.18;6.32;;;;;;;5.38;36.26;101579.41;4977074;28;97866;-81
2021/03/10 02:41:05;;;;;;;14.85;6.10;;;;;;;5.50;35.86;101568.91;4979812;28;97790;-81
2021/03/10 02:43:31;;;;;;;15.18;6.25;;;;;;;5.33;36.36;101570.66;4979978;28;96624;-81
2021/03/10 02:45:59;;;;;;;14.13;6.25;;;;;;;5.35;36.45;101575.03;4977964;28;97356;-80
2021/03/10 02:48:27;;;;;;;14.98;6.07;;;;;;;5.34;37.05;101575.03;4973824;28;98951;-82
2021/03/10 02:50:54;;;;;;;12.50;6.03;;;;;;;5.17;37.68;101568.06;4975621;28;98939;-81
2021/03/10 02:53:21;;;;;;;14.73;6.57;;;;;;;5.05;37.70;101568.06;4963391;28;96871;-80
2021/03/10 02:55:47;;;;;;;18.50;6.93;;;;;;;4.97;37.85;101563.69;4978856;28;96700;-80
2021/03/10 02:58:13;;;;;;;16.27;6.97;;;;;;;5.04;37.60;101570.69;4976805;28;98911;-80
2021/03/10 03:00:39;;;;;;;;;;;;;;;5.00;38.07;101561.06;4973374;28;97704;-81
2021/03/10 03:03:08;;;;;;;16.23;6.20;;;;;;;4.69;38.02;101560.16;4976331;28;96942;-82
2021/03/10 03:05:35;;;;;;;16.85;6.43;;;;;;;4.84;37.83;101572.41;4973072;28;96921;-81
2021/03/10 03:08:02;;;;;;;21.33;7.22;;;;;;;4.59;38.08;101568.91;4966178;28;98943;-81
2021/03/10 03:10:31;;;;;;;16.23;6.22;;;;;;;4.88;36.95;101571.53;4969488;28;98924;-81
2021/03/10 03:13:00;;;;;;;15.45;6.50;;;;;;;4.72;37.23;101575.91;4980474;28;96499;-81
2021/03/10 03:15:27;;;;;;;19.30;6.75;;;;;;;4.81;36.36;101581.13;4964449;28;97016;-81
2021/03/10 03:17:55;;;;;;;17.05;6.75;;;;;;;5.15;36.18;101579.41;4979878;28;99342;-81
2021/03/10 03:20:24;;;;;;;19.17;7.15;;;;;;;5.13;35.68;101576.78;4974707;28;99045;-80
2021/03/10 03:22:54;;;;;;;17.70;6.82;;;;;;;5.21;35.65;101582.03;4969742;28;96786;-81
2021/03/10 03:25:21;;;;;;;16.63;6.88;;;;;;;5.17;35.42;101575.94;4963815;28;96969;-80
2021/03/10 03:27:52;;;;;;;15.25;6.70;;;;;;;5.41;35.08;101574.16;4970160;28;98886;-80
2021/03/10 03:30:19;;;;;;;18.25;7.03;;;;;;;5.63;34.75;101573.25;4986182;28;97803;-80
2021/03/10 03:32:46;;;;;;;18.48;7.38;;;;;;;5.28;34.69;101575.03;4982752;28;98315;-80
2021/03/10 03:35:16;;;;;;;19.42;6.78;;;;;;;5.34;34.87;101580.25;4983682;28;96626;-79
2021/03/10 03:37:45;;;;;;;20.73;7.32;;;;;;;5.70;34.65;101579.34;4984325;28;98886;-80
2021/03/10 03:40:12;;;;;;;22.35;7.13;;;;;;;5.71;34.02;101575.84;4981628;28;98740;-81
2021/03/10 03:42:39;;;;;;;17.88;6.97;;;;;;;5.53;33.58;101582.00;4975490;28;96599;-82
2021/03/10 03:45:07;;;;;;;16.23;7.30;;;;;;;5.69;33.96;101573.22;4979443;28;98730;-80
2021/03/10 03:47:34;;;;;;;16.83;7.60;;;;;;;5.96;33.53;101575.81;4969219;28;97788;-81
2021/03/10 03:50:00;;;;;;;21.67;7.75;;;;;;;5.64;33.61;101577.63;4975208;28;98007;-81
2021/03/10 03:52:25;;;;;;;;;;;;;;;5.22;34.66;101582.03;4972393;28;96598;-81
2021/03/10 03:54:52;;;;;;;17.20;8.30;;;;;;;5.14;35.51;101591.63;4982137;28;98603;-80
2021/03/10 03:57:18;;;;;;;20.90;7.03;;;;;;;5.24;35.06;101587.28;4980116;28;97751;-81
2021/03/10 03:59:44;;;;;;;17.98;7.60;;;;;;;5.39;34.64;101583.75;4974447;28;100039;-82
2021/03/10 04:02:10;;;;;;;20.35;7.85;;;;;;;5.16;35.60;101581.16;4976667;28;97165;-80
2021/03/10 04:04:36;;;;;;;;;;;;;;;5.20;35.24;101581.16;4976677;28;97856;-81
2021/03/10 04:07:02;;;;;;;17.23;7.30;;;;;;;5.13;35.25;101578.53;4964458;28;99356;-81
2021/03/10 04:09:28;;;;;;;21.23;8.40;;;;;;;5.03;36.17;101582.03;4969782;28;100996;-81
2021/03/10 04:11:55;;;;;;;20.23;8.30;;;;;;;5.19;35.40;101576.78;4971344;28;97656;-80
2021/03/10 04:14:21;;;;;;;21.55;8.27;;;;;;;5.17;35.55;101586.41;4972639;28;96884;-82
2021/03/10 04:16:47;;;;;;;22.48;8.45;;;;;;;5.29;34.72;101587.28;4974742;28;99305;-81
2021/03/10 04:19:13;;;;;;;18.98;7.72;;;;;;;5.16;34.41;101579.41;4962710;28;98133;-81
2021/03/10 04:21:39;;;;;;;20.95;7.88;;;;;;;5.21;34.78;101582.91;4977014;28;96829;-81
2021/03/10 04:24:06;;;;;;;;;;;;;;;5.08;35.96;101586.41;4957355;28;96878;-81
2021/03/10 04:26:32;;;;;;;23.45;8.15;;;;;;;5.01;35.43;101584.66;4969174;28;97912;-81
2021/03/10 04:28:59;;;;;;;23.08;8.60;;;;;;;4.50;36.54;101590.69;4951822;28;98814;-80
2021/03/10 04:31:26;;;;;;;27.23;9.18;;;;;;;4.44;37.37;101589.78;4961911;28;96788;-79
2021/03/10 04:33:52;;;;;;;21.42;7.85;;;;;;;4.47;37.26;101584.53;4962578;28;96889;-80
2021/03/10 04:36:18;;;;;;;21.60;9.07;;;;;;;4.64;37.28;101588.09;4967377;28;99011;-81
2021/03/10 04:38:45;;;;;;;20.75;8.60;;;;;;;4.75;37.45;101596.84;4964618;28;98926;-80
2021/03/10 04:41:13;;;;;;;22.00;8.68;;;;;;;4.82;36.48;101591.63;4974173;28;96915;-80
2021/03/10 04:43:39;;;;;;;21.52;8.63;;;;;;;4.69;36.50;101591.59;4975090;28;96846;-80
2021/03/10 04:46:06;;;;;;;;;;;;;;;4.89;36.19;101594.25;4965806;28;97693;-81
2021/03/10 04:48:32;;;;;;;;;;;;;;;4.60;35.97;101588.94;4974968;28;98866;-80
2021/03/10 04:50:58;;;;;;;25.80;8.57;;;;;;;4.62;35.98;101595.94;4979425;28;96843;-81
2021/03/10 04:53:24;;;;;;;23.63;8.85;;;;;;;4.61;35.64;101595.94;4981593;28;96594;-81
2021/03/10 04:55:50;;;;;;;20.73;8.02;;;;;;;4.41;36.27;101591.50;4977741;28;98382;-80
2021/03/10 04:58:17;;;;;;;20.45;8.80;;;;;;;4.66;36.36;101592.44;4973374;28;97575;-81
2021/03/10 05:00:43;;;;;;;24.00;8.15;;;;;;;4.33;36.96;101601.06;4974502;28;96803;-82
2021/03/10 05:03:10;;;;;;;24.02;8.98;;;;;;;4.54;35.33;101591.53;4970375;28;97194;-80
2021/03/10 05:05:36;;;;;;;21.10;9.43;;;;;;;4.50;35.70;101605.50;4969241;28;99247;-79
2021/03/10 05:08:02;;;;;;;23.38;8.93;;;;;;;4.46;37.36;101603.75;4974676;28;97594;-79
2021/03/10 05:10:28;;;;;;;25.60;9.45;;;;;;;4.49;36.67;101614.22;4974344;28;98682;-81
2021/03/10 05:12:54;;;;;;;30.38;9.55;;;;;;;4.52;36.39;101606.41;4980302;28;96739;-81
2021/03/10 05:15:20;;;;;;;;;;;;;;;5.03;34.79;101613.47;4972502;28;100590;-81
2021/03/10 05:17:47;;;;;;;26.65;9.82;;;;;;;4.94;34.87;101609.06;4968803;28;98842;-81
2021/03/10 05:20:14;;;;;;;20.65;8.60;;;;;;;4.90;34.65;101617.81;4964557;28;97114;-80
2021/03/10 05:22:40;;;;;;;25.92;9.82;;;;;;;4.80;35.25;101619.53;4981921;28;96914;-81
2021/03/10 05:25:07;;;;;;;;;;;;;;;4.68;35.10;101621.25;4986955;28;99457;-79
2021/03/10 05:27:33;;;;;;;23.35;8.40;;;;;;;4.73;34.89;101617.75;4989772;28;97680;-80
2021/03/10 05:29:59;;;;;;;;;;;;;;;4.43;35.70;101622.06;4988516;28;97513;-81
2021/03/10 05:32:25;;;;;;;24.77;9.90;;;;;;;4.63;35.28;101620.38;4982022;28;96703;-81
2021/03/10 05:34:51;;;;;;;27.08;10.35;;;;;;;4.62;34.99;101623.84;4977211;28;98918;-81
2021/03/10 05:37:18;;;;;;;29.88;10.10;;;;;;;4.74;35.02;101622.13;4977701;28;99197;-83
2021/03/10 05:39:44;;;;;;;27.33;10.73;;;;;;;4.83;33.88;101621.28;4981616;28;97303;-81
2021/03/10 05:42:11;;;;;;;30.58;9.80;;;;;;;4.72;34.35;101623.91;4966621;28;97168;-80
2021/03/10 05:44:37;;;;;;;28.45;10.73;;;;;;;4.86;34.68;101625.69;4969470;28;100467;-80
2021/03/10 05:47:03;;;;;;;28.85;9.88;;;;;;;4.75;34.18;101629.13;4968980;28;97875;-80
2021/03/10 05:49:29;;;;;;;;;;;;;;;4.66;34.39;101623.00;4982762;28;96703;-80
2021/03/10 05:51:57;;;;;;;25.52;10.35;;;;;;;4.60;34.89;101620.34;4968780;28;97200;-81
2021/03/10 05:54:28;;;;;;;29.85;10.27;;;;;;;4.76;34.10;101625.66;4977747;28;98885;-79
2021/03/10 05:56:55;;;;;;;72.82;12.45;;;;;;;4.61;34.97;101629.97;4983999;28;101673;-78
2021/03/10 05:59:21;;;;;;;30.13;11.25;;;;;;;4.69;36.04;101623.88;4976543;28;97021;-80
2021/03/10 06:01:47;;;;;;;;;;;;;;;4.85;34.81;101627.41;4976980;28;97149;-81
2021/03/10 06:04:13;;;;;;;27.42;10.25;;;;;;;4.98;34.11;101626.56;4975977;28;98931;-81
2021/03/10 06:06:39;;;;;;;;;;;;;;;5.20;33.43;101627.44;4969353;28;99156;-81
2021/03/10 06:09:15;;;;;;;27.87;10.73;;;;;;;5.16;33.41;101626.56;4978414;28;96881;-82
2021/03/10 06:11:54;;;;;;;25.35;10.65;;;;;;;4.57;34.79;101629.09;4976582;28;96829;-81
2021/03/10 06:14:21;;;;;;;28.20;11.00;;;;;;;4.82;34.60;101627.41;4974868;28;97854;-81
2021/03/10 06:16:47;;;;;;;30.60;11.13;;;;;;;5.24;33.56;101633.56;4976570;28;99100;-82
2021/03/10 06:19:13;;;;;;;27.45;11.05;;;;;;;5.24;33.96;101629.19;4974661;28;96994;-81
2021/03/10 06:21:48;;;;;;;24.65;10.70;;;;;;;5.44;33.76;101637.06;4977276;28;96847;-81
2021/03/10 06:24:15;;;;;;;27.50;10.73;;;;;;;5.32;33.29;101631.81;4971294;28;102123;-82
2021/03/10 06:26:40;;;;;;;;;;;;;;;5.27;34.62;101633.56;4990018;28;97812;-82
2021/03/10 06:29:15;;;;;;;37.17;11.75;;;;;;;5.76;33.55;101635.28;4981799;28;96874;-82
2021/03/10 06:31:42;;;;;;;34.13;10.88;;;;;;;5.61;33.36;101640.53;4994187;28;96378;-82
2021/03/10 06:34:10;;;;;;;34.47;11.38;;;;;;;5.72;33.12;101633.53;5000229;28;98266;-81
2021/03/10 06:36:39;;;;;;;39.83;11.43;;;;;;;5.73;33.49;101637.03;4993854;28;97900;-82
2021/03/10 06:39:07;;;;;;;28.08;11.75;;;;;;;5.80;32.80;101636.13;4996045;28;96026;-81
2021/03/10 06:41:36;;;;;;;33.50;12.05;;;;;;;5.85;33.03;101640.50;4995405;28;96261;-80
2021/03/10 06:44:15;;;;;;;37.00;13.07;;;;;;;6.35;32.50;101642.13;4990628;28;98158;-82
2021/03/10 06:46:53;;;;;;;42.65;12.00;;;;;;;6.32;32.09;101652.63;4987280;28;97634;-83
2021/03/10 06:49:19;;;;;;;33.53;11.95;;;;;;;6.15;31.98;101659.72;4984989;28;97220;-80
2021/03/10 06:51:54;;;;;;;28.50;11.45;;;;;;;6.31;31.40;101651.75;4983170;28;97255;-82
2021/03/10 06:54:20;;;;;;;39.35;12.52;;;;;;;6.43;31.37;101650.88;4988034;28;98905;-80
2021/03/10 06:56:58;;;;;;;33.15;12.45;;;;;;;6.27;31.75;101659.66;4996465;28;100291;-80
2021/03/10 06:59:25;;;;;;;38.67;14.20;;;;;;;6.52;31.57;101657.81;4996769;28;96850;-81
2021/03/10 07:01:51;;;;;;;32.63;13.27;;;;;;;6.65;31.25;101663.00;4991486;28;96852;-81
2021/03/10 07:04:16;;;;;;;;;;;;;;;6.76;31.25;101666.44;4982719;28;98912;-82
2021/03/10 07:06:42;;;;;;;36.25;12.68;;;;;;;6.94;30.94;101669.88;4981030;28;97698;-83
2021/03/10 07:09:13;;;;;;;38.80;13.02;;;;;;;6.91;31.11;101668.13;4977988;28;97151;-82
2021/03/10 07:11:40;;;;;;;38.60;14.38;;;;;;;6.80;30.92;101662.94;4985882;28;96669;-83
2021/03/10 07:14:06;;;;;;;37.88;13.50;;;;;;;7.05;30.93;101674.16;4983250;28;99130;-82
2021/03/10 07:16:33;;;;;;;;;;;;;;;7.19;30.26;101667.06;4975903;28;100828;-82
2021/03/10 07:19:00;;;;;;;39.17;13.50;;;;;;;7.17;30.20;101676.69;4977188;28;96798;-82
2021/03/10 07:21:30;;;;;;;56.65;14.32;;;;;;;7.12;30.38;101672.38;4978877;28;96707;-81
2021/03/10 07:24:00;;;;;;;32.58;13.35;;;;;;;7.11;30.02;101666.22;4979594;28;99357;-82
2021/03/10 07:26:29;;;;;;;33.20;12.75;;;;;;;7.24;29.57;101672.28;4975236;28;101484;-81
2021/03/10 07:29:02;;;;;;;37.33;13.27;;;;;;;7.27;29.42;101677.53;4980791;28;98308;-83
2021/03/10 07:31:28;;;;;;;37.58;13.02;;;;;;;7.51;29.24;101674.69;4978370;28;96562;-81
2021/03/10 07:33:57;;;;;;;30.10;12.73;;;;;;;7.58;28.94;101679.03;4983859;28;100671;-82
2021/03/10 07:36:39;;;;;;;33.97;14.02;;;;;;;7.66;29.11;101675.47;4977322;28;98866;-81
2021/03/10 07:39:07;;;;;;;30.85;12.52;;;;;;;7.64;29.06;101683.34;4976345;28;97057;-81
2021/03/10 07:41:35;;;;;;;35.30;13.05;;;;;;;7.98;28.73;101697.97;4979953;28;96753;-81
2021/03/10 07:44:14;;;;;;;42.60;13.77;;;;;;;8.35;28.10;101687.94;4965688;28;98119;-83
2021/03/10 07:46:41;;;;;;;31.02;12.90;;;;;;;8.47;28.03;101693.97;4965412;28;97907;-81
2021/03/10 07:49:20;;;;;;;39.92;14.20;;;;;;;8.80;27.05;101693.50;4969616;28;96877;-81
2021/03/10 07:51:47;;;;;;;47.88;14.73;;;;;;;9.42;26.56;101697.91;4970025;28;97460;-81
2021/03/10 07:54:27;;;;;;;42.00;13.75;;;;;;;9.38;26.55;101698.84;4974790;28;97940;-82
2021/03/10 07:57:10;;;;;;;31.48;13.25;;;;;;;9.17;26.94;101701.81;4978014;28;98973;-81
2021/03/10 07:59:37;;;;;;;37.92;13.40;;;;;;;9.30;26.58;101694.59;4968654;28;96856;-82
2021/03/10 08:02:06;;;;;;;30.40;13.27;;;;;;;9.21;26.46;101692.94;4973926;28;98660;-81
2021/03/10 08:04:34;;;;;;;37.70;14.95;;;;;;;9.46;26.27;101693.44;4976859;28;98402;-80
2021/03/10 08:07:01;;;;;;;34.90;12.60;;;;;;;9.31;26.25;101697.19;4982528;28;98962;-80
2021/03/10 08:09:29;;;;;;;30.08;12.55;;;;;;;9.29;26.04;101695.47;4981927;28;96736;-80
2021/03/10 08:12:07;;;;;;;26.67;12.45;;;;;;;9.55;25.53;101703.84;4981765;28;96855;-81
2021/03/10 08:14:40;;;;;;;33.85;13.10;;;;;;;9.38;25.78;101700.63;4976361;28;99379;-81
2021/03/10 08:17:10;;;;;;;29.73;13.10;;;;;;;9.46;26.01;101693.44;4972811;28;102082;-81
2021/03/10 08:19:37;;;;;;;36.42;13.10;;;;;;;10.74;24.68;101687.56;4989620;28;97096;-82
2021/03/10 08:22:03;;;;;;;38.08;14.15;;;;;;;11.49;23.56;101686.69;4985586;28;96806;-80
2021/03/10 08:24:29;;;;;;;38.20;13.55;;;;;;;11.63;23.11;101688.13;4985347;28;97560;-79
2021/03/10 08:26:58;;;;;;;41.13;14.07;;;;;;;11.10;23.99;101698.22;4983947;28;98033;-80
2021/03/10 08:29:25;;;;;;;34.58;14.35;;;;;;;10.43;24.42;101691.75;4986678;28;96602;-81
2021/03/10 08:31:53;;;;;;;32.10;12.70;;;;;;;10.57;24.65;101694.94;4989491;28;97768;-81
2021/03/10 08:36:56;;;;;;;44.40;12.77;;;;;;;11.16;23.66;101698.06;4072773;26;97390;-81
2021/03/10 08:39:21;;;;;;;29.40;12.05;;;;;;;10.19;24.54;101700.13;4964234;28;98353;-81
2021/03/10 08:41:56;;;;;;;;;;;;;;;10.11;24.21;101694.09;4958756;28;96899;-82
2021/03/10 08:44:40;;;;;;;32.00;10.65;;;;;;;10.53;23.89;101684.47;4962688;28;96960;-85
2021/03/10 08:47:12;;;;;;;26.50;11.43;;;;;;;10.89;23.27;101680.19;4965715;28;99673;-87
2021/03/10 08:49:38;;;;;;;20.67;10.15;;;;;;;11.28;22.64;101668.72;4965033;28;96757;-86
2021/03/10 08:52:09;;;;;;;31.52;10.55;;;;;;;11.74;22.48;101667.59;4975136;28;96604;-88
2021/03/10 09:00:20;;;;;;;28.52;9.35;;;;;;;11.55;21.71;101667.16;5056198;22;98650;-86
2021/03/10 09:02:50;;;;;;;;;;;;;;;11.89;21.28;101672.47;4996586;28;97505;-89
2021/03/10 09:05:27;;;;;;;23.23;9.02;;;;;;;11.88;21.11;101676.06;4987915;28;98269;-88
2021/03/10 09:11:20;;;;;;;24.63;9.05;;;;;;;11.80;21.58;101688.63;4965915;28;96928;-89
2021/03/10 09:13:52;;;;;;;31.00;10.38;;;;;;;12.18;21.13;101682.31;4968178;28;97020;-88
2021/03/10 09:33:20;;;;;;;24.35;9.88;;;;;;;12.58;20.76;101676.75;4967825;28;96654;-87
2021/03/10 09:35:54;;;;;;;26.70;9.98;;;;;;;12.46;21.38;101666.53;4962333;28;96917;-86
2021/03/10 09:38:21;;;;;;;20.15;8.65;;;;;;;12.61;20.75;101663.41;4961371;28;96736;-87
2021/03/10 09:43:36;;;;;;;23.50;8.65;;;;;;;12.59;20.66;101659.94;4967809;28;97478;-86
2021/03/10 09:46:12;;;;;;;21.92;9.75;;;;;;;12.15;20.84;101664.72;4965353;28;96731;-85
2021/03/10 09:51:22;;;;;;;18.27;7.63;;;;;;;12.41;20.29;101663.97;4962407;28;98460;-86
2021/03/10 09:53:51;;;;;;;17.77;7.57;;;;;;;12.72;19.98;101675.44;4963064;28;97198;-83
2021/03/10 10:01:49;;;;;;;16.45;6.72;;;;;;;12.43;19.90;101675.41;4963389;28;99802;-87
2021/03/10 10:04:46;;;;;;;15.90;6.43;;;;;;;12.81;18.96;101668.13;4962625;28;96866;-87
2021/03/10 10:07:13;;;;;;;12.82;5.63;;;;;;;13.00;18.79;101659.53;4968893;28;96926;-87
2021/03/10 10:09:40;;;;;;;8.57;4.47;;;;;;;12.50;18.68;101663.72;4971549;28;99032;-86
2021/03/10 10:12:34;;;;;;;17.38;5.88;;;;;;;12.38;19.33;101677.34;4971720;28;98550;-86
2021/03/10 10:15:02;;;;;;;8.10;4.45;;;;;;;12.14;19.02;101678.03;4974369;28;96475;-86
2021/03/10 10:20:24;;;;;;;13.93;5.75;;;;;;;13.20;18.59;101664.25;4979482;28;99084;-86
2021/03/10 10:23:06;;;;;;;17.70;5.25;;;;;;;12.52;17.94;101669.00;4957432;28;97936;-87
2021/03/10 10:25:37;;;;;;;9.85;4.70;;;;;;;12.42;18.24;101673.66;4970083;28;96560;-88
2021/03/10 10:28:08;;;;;;;11.63;5.47;;;;;;;12.84;17.94;101665.38;4984952;22;97703;-87
2021/03/10 10:30:35;;;;;;;10.07;4.72;;;;;;;12.80;18.18;101659.28;4949703;28;98263;-84
2021/03/10 10:33:03;;;;;;;25.65;5.55;;;;;;;12.28;18.98;101655.50;4950954;28;99379;-87
2021/03/10 10:35:31;;;;;;;11.32;5.43;;;;;;;12.64;19.14;101660.69;4927910;28;96954;-86
2021/03/10 10:38:01;;;;;;;15.48;5.57;;;;;;;12.37;19.05;101665.88;4954067;28;97524;-86
2021/03/10 10:43:24;;;;;;;14.40;6.07;;;;;;;13.06;19.08;101647.91;4955103;28;98365;-88
2021/03/10 10:45:55;;;;;;;10.40;5.72;;;;;;;12.31;19.34;101655.44;4960357;28;95868;-83
2021/03/10 10:48:21;;;;;;;10.20;5.90;;;;;;;12.43;19.26;101648.03;4961288;28;95974;-81
2021/03/10 10:50:50;;;;;;;;;;;;;;;12.83;18.38;101648.59;4958401;28;96894;-89
2021/03/10 10:53:16;;;;;;;6.57;3.90;;;;;;;12.81;17.73;101636.28;4959971;28;96413;-84
2021/03/10 10:55:42;;;;;;;;;;;;;;;12.79;17.48;101636.34;4958426;28;95963;-86
2021/03/10 10:58:08;;;;;;;6.88;3.95;;;;;;;12.57;18.09;101646.72;4960787;28;96065;-86
2021/03/10 11:00:35;;;;;;;;;;;;;;;12.22;17.75;101650.38;4960587;28;98116;-86
2021/03/10 11:03:01;;;;;;;11.45;4.55;;;;;;;12.90;17.44;101638.66;4959648;28;97735;-85
2021/03/10 11:05:27;;;;;;;;;;;;;;;13.01;17.27;101649.81;4960744;28;96217;-87
2021/03/10 11:07:56;;;;;;;8.82;3.90;;;;;;;12.91;17.77;101646.59;4950501;28;96066;-88
2021/03/10 11:13:32;;;;;;;9.88;4.55;;;;;;;13.34;16.88;101642.59;4945531;28;96770;-85
2021/03/10 11:16:00;;;;;;;10.02;4.63;;;;;;;13.10;16.89;101636.25;4959597;28;96640;-86
2021/03/10 11:18:28;;;;;;;7.32;4.00;;;;;;;12.60;17.17;101632.53;4953259;28;96548;-87
2021/03/10 11:21:04;;;;;;;8.70;4.78;;;;;;;13.00;17.31;101630.38;4955355;28;100157;-88
2021/03/10 11:23:31;;;;;;;10.50;5.38;;;;;;;13.03;17.87;101618.78;4956784;28;98342;-88
2021/03/10 11:31:34;;;;;;;9.55;4.70;;;;;;;13.30;17.52;101617.06;4940220;28;97726;-83
2021/03/10 11:34:12;;;;;;;12.73;5.07;;;;;;;13.40;17.78;101613.19;4947033;28;97540;-85
2021/03/10 11:39:53;;;;;;;12.60;4.60;;;;;;;12.84;18.25;101607.91;4951765;28;96802;-86
2021/03/10 11:42:21;;;;;;;10.55;4.45;;;;;;;13.08;17.80;101600.94;4950030;28;97077;-84
2021/03/10 11:44:52;;;;;;;8.50;4.13;;;;;;;12.78;18.48;101603.66;4954419;28;99165;-84
2021/03/10 11:47:19;;;;;;;9.25;4.10;;;;;;;12.95;17.63;101595.16;4948902;28;97166;-86
2021/03/10 11:49:46;;;;;;;7.82;3.90;;;;;;;13.12;17.38;101600.84;4948107;28;96779;-84
2021/03/10 11:52:13;;;;;;;18.75;4.28;;;;;;;12.66;18.02;101593.44;4946578;28;98266;-85
2021/03/10 11:54:39;;;;;;;10.65;4.55;;;;;;;12.75;18.42;101593.13;4951789;28;99354;-85
2021/03/10 11:57:06;;;;;;;8.93;4.95;;;;;;;13.41;17.86;101588.38;4942704;28;96650;-82
2021/03/10 11:59:34;;;;;;;9.27;4.18;;;;;;;12.82;18.23;101591.16;4950666;28;96707;-84
2021/03/10 12:02:01;;;;;;;12.70;5.03;;;;;;;12.94;17.97;101580.16;4941364;28;100724;-82
2021/03/10 12:10:11;;;;;;;8.43;4.40;;;;;;;12.64;17.46;101575.81;4951788;28;96776;-87
2021/03/10 12:12:38;;;;;;;11.18;4.72;;;;;;;12.03;18.23;101574.09;4954702;28;96860;-87
2021/03/10 12:15:08;;;;;;;9.95;4.22;;;;;;;12.16;17.44;101570.19;4937102;28;100194;-87
2021/03/10 12:17:35;;;;;;;9.57;4.63;;;;;;;12.77;17.37;101567.44;4946020;28;96549;-86
2021/03/10 12:20:04;;;;;;;9.52;4.70;;;;;;;12.63;17.42;101582.03;4951729;28;97626;-87
2021/03/10 12:22:32;;;;;;;8.32;4.22;;;;;;;12.30;17.24;101574.19;4952930;28;96970;-86
2021/03/10 12:24:59;;;;;;;10.50;4.05;;;;;;;12.56;16.96;101572.53;4967358;28;98257;-85
2021/03/10 12:27:26;;;;;;;9.57;4.53;;;;;;;12.59;17.60;101569.81;4954285;28;97050;-84
2021/03/10 12:29:52;;;;;;;12.05;5.70;;;;;;;12.45;17.81;101566.69;4927606;28;96957;-85
2021/03/10 12:32:19;;;;;;;11.70;5.10;;;;;;;12.75;17.96;101565.75;4956197;28;98856;-85
2021/03/10 12:34:45;;;;;;;8.48;5.00;;;;;;;12.68;18.03;101570.38;4948470;28;96628;-87
2021/03/10 12:37:41;;;;;;;10.93;5.15;;;;;;;12.78;17.91;101566.53;4936824;28;96564;-87